Terminal Aerodrome Forecast
Issued by NWS

Home | Current Version | Previous Version | Text Only | Print | Product List | Glossary On
Versions: 1 2 3 4 5 6 7 8 9 10 11 12 13 14 15 16 17 18 19
000
FTUS44 KTSA 181200 AAA
TAFMLC
TAF AMD
KMLC 181227Z 1812/1912 00000KT 5SM BR OVC004
     FM181500 12003KT 5SM BR OVC006
     FM182200 07005KT 6SM BR OVC012
     FM190100 03003KT 4SM BR OVC006=

USA.gov is the U.S. government's official web portal to all federal, state and local government web resources and services.